createdAt,value
2022-10-05T02:05:05.763Z,11.53
2022-10-05T02:07:14.677Z,10.27
2022-10-05T02:09:25.168Z,10.97
2022-10-05T02:11:26.839Z,10.93
2022-10-05T02:13:33.823Z,10.00
2022-10-05T02:15:45.768Z,11.03
2022-10-05T02:17:55.936Z,10.57
2022-10-05T02:20:02.850Z,11.97
2022-10-05T02:22:28.867Z,12.07
2022-10-05T02:24:38.362Z,11.13
2022-10-05T02:26:40.896Z,10.90
2022-10-05T02:28:42.708Z,11.33
2022-10-05T08:50:01.312Z,10.00
2022-10-05T08:52:11.884Z,10.20
2022-10-05T08:54:38.246Z,10.20
2022-10-05T08:56:57.176Z,10.17
2022-10-05T08:59:22.152Z,9.17
2022-10-05T09:01:33.064Z,9.17
2022-10-05T09:03:53.478Z,9.87
2022-10-05T09:06:24.760Z,9.43
2022-10-05T13:49:39.601Z,2.90
2022-10-05T13:51:46.480Z,2.80
2022-10-05T13:53:49.578Z,2.92
2022-10-05T13:56:00.347Z,2.80
2022-10-05T13:58:20.693Z,3.35
2022-10-05T14:00:26.959Z,2.63
2022-10-05T14:02:31.246Z,2.97
2022-10-05T14:04:58.531Z,3.10
2022-10-05T14:07:19.594Z,3.05
2022-10-05T14:14:25.401Z,2.22
2022-10-05T14:16:27.463Z,2.10
2022-10-05T14:18:32.812Z,2.53
2022-10-05T14:20:35.187Z,2.50
2022-10-05T14:22:42.138Z,2.38
2022-10-05T14:25:10.313Z,2.63
2022-10-05T14:27:18.257Z,2.15
2022-10-05T14:29:25.161Z,2.42
2022-10-05T18:08:42.184Z,1.80
2022-10-05T18:11:08.435Z,2.27
2022-10-05T18:13:36.998Z,2.00
2022-10-05T18:15:46.353Z,2.45
2022-10-05T18:17:58.664Z,2.30
2022-10-05T18:20:21.776Z,2.00
2022-10-05T18:22:23.289Z,2.40
2022-10-05T18:24:53.074Z,2.28
2022-10-05T18:27:13.747Z,2.17
2022-10-05T18:29:37.986Z,2.30
2022-10-05T18:31:55.183Z,2.10
2022-10-05T18:34:15.253Z,2.08
2022-10-05T18:36:35.433Z,1.98
2022-10-05T18:38:52.935Z,2.15
2022-10-05T18:41:22.555Z,2.03
2022-10-05T18:43:47.077Z,2.00
2022-10-05T18:46:19.307Z,2.10
2022-10-05T18:48:54.916Z,2.17
2022-10-05T18:51:17.180Z,2.58
2022-10-05T18:53:33.146Z,2.25
2022-10-05T18:56:12.116Z,2.38
2022-10-05T18:58:30.732Z,1.92
2022-10-05T19:00:52.696Z,2.20
2022-10-05T19:03:00.821Z,1.75
2022-10-05T19:05:23.588Z,2.60
2022-10-05T19:07:59.385Z,2.30
2022-10-05T19:10:25.465Z,2.25
2022-10-05T19:12:41.830Z,2.20
2022-10-05T19:14:58.622Z,2.58
2022-10-05T19:17:07.344Z,2.30
2022-10-05T19:19:38.414Z,2.13
2022-10-05T19:22:02.975Z,2.43
2022-10-05T19:24:31.591Z,2.65
2022-10-05T19:26:54.512Z,2.22
2022-10-05T19:29:14.904Z,2.33
2022-10-05T19:31:34.843Z,2.33
2022-10-05T19:34:22.184Z,2.60
2022-10-05T19:36:26.544Z,2.88
2022-10-05T19:38:59.039Z,2.80
2022-10-05T19:41:15.412Z,2.70
2022-10-05T19:43:30.693Z,3.00
2022-10-05T19:45:39.697Z,2.88
2022-10-05T19:47:43.888Z,3.10
2022-10-05T19:49:58.464Z,2.83
2022-10-05T19:52:01.081Z,2.90
2022-10-05T19:54:29.245Z,2.60
2022-10-05T19:56:45.711Z,2.75
2022-10-05T19:58:49.210Z,2.50
2022-10-05T20:01:00.555Z,2.57
2022-10-05T20:03:16.545Z,2.80
2022-10-05T20:05:18.627Z,2.70
2022-10-05T20:07:23.725Z,2.87
2022-10-05T20:09:25.361Z,2.87
2022-10-05T20:11:28.524Z,2.70
2022-10-05T20:13:33.436Z,2.93
2022-10-05T20:15:54.987Z,2.97
2022-10-05T20:18:15.275Z,3.00
2022-10-05T20:20:36.445Z,3.07
2022-10-05T20:22:46.170Z,2.53
2022-10-05T20:24:53.010Z,2.97
2022-10-05T20:27:16.125Z,2.90
2022-10-05T20:29:17.960Z,2.83
2022-10-05T20:31:20.089Z,3.03
2022-10-05T20:33:25.989Z,2.60
2022-10-05T20:35:30.913Z,3.10
2022-10-05T20:37:33.105Z,2.97
2022-10-05T20:39:34.677Z,3.20
2022-10-05T20:41:36.203Z,3.00
2022-10-05T20:43:39.417Z,2.93
2022-10-05T20:45:43.696Z,3.00
2022-10-05T20:47:47.358Z,3.10
2022-10-05T20:49:49.278Z,3.10
2022-10-05T20:51:51.389Z,2.60
2022-10-05T20:53:55.977Z,2.63
2022-10-05T20:55:59.898Z,3.10
2022-10-05T20:58:01.653Z,3.00
2022-10-05T21:00:03.509Z,4.07
2022-10-05T21:02:05.838Z,3.20
2022-10-05T21:04:09.593Z,2.87
2022-10-05T21:06:11.372Z,3.07
2022-10-05T21:08:12.932Z,2.90
2022-10-05T21:10:14.568Z,3.40
2022-10-05T21:12:18.941Z,3.00
2022-10-05T21:14:20.711Z,2.80
2022-10-05T21:16:23.068Z,3.23
2022-10-05T21:18:24.882Z,2.80
2022-10-05T21:20:26.718Z,3.27
2022-10-05T21:22:28.253Z,2.70
2022-10-05T21:24:29.796Z,3.20
2022-10-05T21:26:31.941Z,3.00
2022-10-05T21:28:34.042Z,3.23
2022-10-05T21:30:35.614Z,2.70
2022-10-05T21:32:41.808Z,3.13
2022-10-05T21:34:45.699Z,3.23
2022-10-05T21:36:47.250Z,2.53
2022-10-05T21:38:52.310Z,2.77
2022-10-05T21:40:54.108Z,2.60
2022-10-05T21:42:55.699Z,3.47
2022-10-05T21:44:57.268Z,3.30
2022-10-05T21:46:58.923Z,3.20
2022-10-05T21:49:00.466Z,3.10
2022-10-05T21:51:03.607Z,2.90
2022-10-05T21:53:08.226Z,2.93
2022-10-05T21:55:10.757Z,2.90
2022-10-05T21:57:12.909Z,3.00
2022-10-05T21:59:17.010Z,2.97
2022-10-05T22:01:22.419Z,3.03
2022-10-05T22:03:24.642Z,3.00
2022-10-05T22:05:26.234Z,2.50
2022-10-05T22:07:29.114Z,3.00
2022-10-05T22:09:30.667Z,3.17
2022-10-05T22:11:33.218Z,2.60
2022-10-05T22:13:51.086Z,2.70
2022-10-05T22:15:55.340Z,2.53
2022-10-05T22:17:59.720Z,2.50
2022-10-05T22:20:01.447Z,2.47
2022-10-05T22:22:02.988Z,3.13
2022-10-05T22:24:04.787Z,3.10
2022-10-05T22:26:09.223Z,2.93
2022-10-05T22:28:14.766Z,3.20
2022-10-05T22:30:16.495Z,3.37
2022-10-05T22:32:18.331Z,3.50
2022-10-05T22:34:19.883Z,3.67
2022-10-05T22:36:21.815Z,3.33
2022-10-05T22:38:23.375Z,2.80
2022-10-05T22:40:24.919Z,3.03
2022-10-05T22:42:26.423Z,3.50
2022-10-05T22:44:28.287Z,3.70
2022-10-05T22:46:30.133Z,3.50
2022-10-05T22:48:31.808Z,3.60
2022-10-05T22:50:33.392Z,3.40
2022-10-05T22:52:34.980Z,3.60
2022-10-05T22:54:37.398Z,3.47
2022-10-05T22:56:39.087Z,3.90
2022-10-05T22:58:41.701Z,3.33
2022-10-05T23:00:59.073Z,3.10
2022-10-05T23:03:00.688Z,3.03
2022-10-05T23:05:02.270Z,3.77
2022-10-05T23:07:04.489Z,3.00
2022-10-05T23:09:06.027Z,3.20
2022-10-05T23:11:10.462Z,3.33
2022-10-05T23:13:11.990Z,3.03
2022-10-05T23:15:13.551Z,3.07
2022-10-05T23:17:21.027Z,2.93
2022-10-05T23:19:23.253Z,3.17
2022-10-05T23:21:28.013Z,2.90
2022-10-05T23:23:29.616Z,2.57
2022-10-05T23:25:31.348Z,3.03
2022-10-05T23:27:42.612Z,3.30
2022-10-05T23:29:44.243Z,2.70
2022-10-05T23:31:45.885Z,3.10
2022-10-05T23:33:47.738Z,3.10
2022-10-05T23:35:51.346Z,2.97
2022-10-05T23:37:52.936Z,3.20
2022-10-05T23:39:54.508Z,2.73
2022-10-05T23:41:56.215Z,2.83
2022-10-05T23:43:57.732Z,2.90
2022-10-05T23:46:00.252Z,2.70
2022-10-05T23:48:01.825Z,3.17
2022-10-05T23:50:05.294Z,3.50
2022-10-05T23:52:06.862Z,2.83
2022-10-05T23:54:08.460Z,2.97
2022-10-05T23:56:10.028Z,3.07
2022-10-05T23:58:12.418Z,3.03
